createdAt,value
2018-07-22T00:00:57.520Z,20.10
2018-07-22T00:05:56.701Z,20.10
2018-07-22T00:08:26.588Z,20.10
2018-07-22T00:10:56.092Z,20.00
2018-07-22T00:13:25.573Z,20.00
2018-07-22T00:15:55.032Z,20.00
2018-07-22T00:18:24.467Z,20.00
2018-07-22T00:20:53.941Z,19.90
2018-07-22T00:23:23.474Z,19.90
2018-07-22T00:25:52.851Z,19.90
2018-07-22T00:28:22.286Z,19.90
2018-07-22T00:30:51.779Z,19.90
2018-07-22T00:33:21.287Z,19.90
2018-07-22T00:35:50.695Z,19.80
2018-07-22T00:38:20.087Z,19.70
2018-07-22T00:40:49.490Z,19.70
2018-07-22T00:43:19.225Z,19.60
2018-07-22T00:45:48.638Z,19.50
2018-07-22T00:48:18.131Z,19.50
2018-07-22T00:50:47.918Z,19.40
2018-07-22T00:53:17.446Z,19.30
2018-07-22T00:55:47.068Z,19.20
2018-07-22T00:58:16.555Z,19.20
2018-07-22T01:00:46.214Z,19.00
2018-07-22T01:03:15.730Z,18.90
2018-07-22T01:05:45.462Z,18.90
2018-07-22T01:08:14.876Z,18.80
2018-07-22T01:10:44.795Z,18.40
2018-07-22T01:13:14.451Z,18.70
2018-07-22T01:15:44.170Z,19.00
2018-07-22T01:18:13.516Z,18.60
2018-07-22T01:20:43.108Z,18.50
2018-07-22T01:23:12.731Z,18.50
2018-07-22T01:25:42.414Z,18.40
2018-07-22T01:28:11.933Z,18.40
2018-07-22T01:30:41.736Z,18.40
2018-07-22T01:33:11.363Z,18.30
2018-07-22T01:35:40.737Z,18.40
2018-07-22T01:38:10.270Z,18.30
2018-07-22T01:40:39.828Z,18.30
2018-07-22T01:43:09.355Z,18.30
2018-07-22T01:45:38.737Z,18.30
2018-07-22T01:48:08.151Z,18.30
2018-07-22T01:50:37.734Z,18.30
2018-07-22T01:53:07.159Z,18.20
2018-07-22T01:55:36.590Z,18.10
2018-07-22T01:58:06.187Z,18.10
2018-07-22T02:00:35.766Z,18.00
2018-07-22T02:03:05.324Z,18.00
2018-07-22T02:05:34.848Z,17.90
2018-07-22T02:08:04.354Z,18.00
2018-07-22T02:10:33.754Z,17.90
2018-07-22T02:13:03.320Z,17.90
2018-07-22T02:15:32.917Z,17.90
2018-07-22T02:18:02.304Z,17.90
2018-07-22T02:20:31.962Z,17.90
2018-07-22T02:23:01.566Z,17.90
2018-07-22T02:25:31.085Z,17.80
2018-07-22T02:28:00.991Z,17.80
2018-07-22T02:30:30.505Z,17.80
2018-07-22T02:33:00.167Z,17.80
2018-07-22T02:35:29.849Z,17.70
2018-07-22T02:37:59.306Z,17.70
2018-07-22T02:40:29.047Z,17.70
2018-07-22T02:42:58.558Z,17.60
2018-07-22T02:45:28.063Z,17.60
2018-07-22T02:47:57.572Z,17.50
2018-07-22T02:50:26.997Z,17.50
2018-07-22T02:52:56.542Z,17.50
2018-07-22T02:55:26.103Z,17.50
2018-07-22T02:57:55.597Z,17.50
2018-07-22T03:00:25.012Z,17.50
2018-07-22T03:02:54.440Z,17.40
2018-07-22T03:05:23.790Z,17.40
2018-07-22T03:07:53.165Z,17.40
2018-07-22T03:10:22.593Z,17.40
2018-07-22T03:12:52.089Z,17.30
2018-07-22T03:15:21.627Z,17.30
2018-07-22T03:17:51.091Z,17.30
2018-07-22T03:20:20.517Z,17.30
2018-07-22T03:22:49.880Z,17.20
2018-07-22T03:25:19.242Z,17.30
2018-07-22T03:27:48.674Z,17.20
2018-07-22T03:30:18.027Z,17.20
2018-07-22T03:32:47.691Z,17.20
2018-07-22T03:35:17.136Z,17.20
2018-07-22T03:37:46.638Z,17.20
2018-07-22T03:40:16.197Z,17.30
2018-07-22T03:42:45.789Z,17.30
2018-07-22T03:45:15.204Z,17.30
2018-07-22T03:47:45.399Z,17.20
2018-07-22T03:50:14.891Z,17.30
2018-07-22T03:52:44.351Z,17.30
2018-07-22T03:55:13.909Z,17.20
2018-07-22T03:57:43.942Z,17.20
2018-07-22T04:00:13.620Z,17.20
2018-07-22T04:02:43.755Z,17.20
2018-07-22T04:05:13.307Z,17.10
2018-07-22T04:07:42.587Z,17.10
2018-07-22T04:10:11.989Z,17.10
2018-07-22T04:12:41.404Z,17.10
2018-07-22T04:15:10.923Z,17.10
2018-07-22T04:17:40.570Z,17.20
2018-07-22T04:20:09.995Z,17.20
2018-07-22T04:22:39.314Z,17.40
2018-07-22T04:25:08.726Z,17.50
2018-07-22T04:27:38.119Z,17.60
2018-07-22T04:30:07.827Z,17.80
2018-07-22T04:32:37.221Z,18.00
2018-07-22T04:35:06.727Z,18.10
2018-07-22T04:37:36.075Z,18.30
2018-07-22T04:40:05.659Z,18.50
2018-07-22T04:42:35.052Z,18.60
2018-07-22T04:45:04.974Z,18.80
2018-07-22T04:47:34.339Z,19.00
2018-07-22T04:52:32.903Z,19.30
2018-07-22T04:55:02.411Z,19.50
2018-07-22T04:57:31.796Z,19.50
2018-07-22T05:00:01.129Z,19.60
2018-07-22T05:02:30.470Z,19.90
2018-07-22T05:04:59.864Z,20.10
2018-07-22T05:07:29.291Z,20.40
2018-07-22T05:09:58.623Z,20.80
2018-07-22T05:12:28.322Z,21.10
2018-07-22T05:14:57.650Z,21.30
2018-07-22T05:17:27.174Z,21.50
2018-07-22T05:19:56.457Z,21.90
2018-07-22T05:22:26.250Z,22.30
2018-07-22T05:24:55.726Z,22.70
2018-07-22T05:27:25.137Z,22.80
2018-07-22T05:29:54.785Z,22.70
2018-07-22T05:32:24.611Z,22.80
2018-07-22T05:34:54.443Z,23.00
2018-07-22T05:37:24.311Z,23.20
2018-07-22T05:39:54.035Z,23.10
2018-07-22T05:42:23.732Z,23.30
2018-07-22T05:44:53.534Z,23.50
2018-07-22T05:47:23.388Z,23.70
2018-07-22T05:49:53.079Z,24.10
2018-07-22T05:52:22.411Z,24.20
2018-07-22T05:54:51.762Z,24.10
2018-07-22T05:57:21.121Z,24.20
2018-07-22T05:59:50.675Z,24.40
2018-07-22T06:02:20.039Z,25.10
2018-07-22T06:04:49.871Z,25.20
2018-07-22T06:07:19.279Z,25.40
2018-07-22T06:09:48.844Z,25.60
2018-07-22T06:12:18.439Z,25.40
2018-07-22T06:14:47.683Z,25.10
2018-07-22T06:17:17.219Z,25.70
2018-07-22T06:19:46.499Z,25.30
2018-07-22T06:22:15.956Z,24.90
2018-07-22T06:24:45.535Z,24.30
2018-07-22T06:27:14.932Z,24.00
2018-07-22T06:29:44.592Z,23.80
2018-07-22T06:32:13.943Z,23.90
2018-07-22T06:34:43.425Z,24.10
2018-07-22T06:37:12.742Z,23.90
2018-07-22T06:39:42.093Z,23.70
2018-07-22T06:42:11.732Z,23.90
2018-07-22T06:44:41.168Z,24.50
2018-07-22T06:47:10.624Z,24.90
2018-07-22T06:49:40.292Z,25.30
2018-07-22T06:52:10.049Z,26.10
2018-07-22T06:54:39.507Z,26.30
2018-07-22T06:57:09.198Z,26.10
2018-07-22T06:59:38.585Z,26.00
2018-07-22T07:02:08.162Z,25.80
2018-07-22T07:04:38.082Z,25.60
2018-07-22T07:07:07.473Z,25.30
2018-07-22T07:09:36.881Z,25.20
2018-07-22T07:12:06.270Z,25.50
2018-07-22T07:14:35.823Z,26.20
2018-07-22T07:17:05.438Z,26.20
2018-07-22T07:19:34.815Z,25.90
2018-07-22T07:22:04.323Z,26.80
2018-07-22T07:24:33.804Z,28.30
2018-07-22T07:27:03.368Z,29.30
2018-07-22T07:29:32.774Z,29.20
2018-07-22T07:32:02.194Z,28.90
2018-07-22T07:34:31.530Z,28.80
2018-07-22T07:37:01.100Z,29.20
2018-07-22T07:39:30.566Z,29.70
2018-07-22T07:41:59.891Z,30.60
2018-07-22T07:44:29.349Z,31.20
2018-07-22T07:46:58.815Z,32.00
2018-07-22T07:49:28.178Z,32.20
2018-07-22T07:51:57.524Z,32.40
2018-07-22T07:54:27.052Z,31.10
2018-07-22T07:56:56.668Z,30.70
2018-07-22T07:59:26.186Z,31.70
2018-07-22T08:01:55.834Z,32.00
2018-07-22T08:04:25.547Z,31.70
2018-07-22T08:06:55.417Z,32.30
2018-07-22T08:09:25.128Z,33.00
2018-07-22T08:11:55.047Z,33.60
2018-07-22T08:14:24.803Z,33.00
2018-07-22T08:16:54.482Z,32.70
2018-07-22T08:19:24.653Z,32.40
2018-07-22T08:21:54.136Z,32.90
2018-07-22T08:24:23.724Z,32.80
2018-07-22T08:26:53.015Z,33.00
2018-07-22T08:29:38.557Z,33.20
2018-07-22T08:32:07.900Z,33.50
2018-07-22T08:34:37.313Z,32.70
2018-07-22T08:37:06.877Z,32.90
2018-07-22T08:39:36.310Z,33.30
2018-07-22T08:42:06.206Z,33.90
2018-07-22T08:44:35.681Z,34.90
2018-07-22T08:47:05.262Z,35.70
2018-07-22T08:49:34.814Z,35.60
2018-07-22T08:54:33.423Z,35.60
2018-07-22T08:57:03.492Z,35.90
2018-07-22T08:59:33.192Z,36.60
2018-07-22T09:02:02.839Z,37.40
2018-07-22T09:04:32.363Z,37.10
2018-07-22T09:07:01.746Z,36.50
2018-07-22T09:12:00.331Z,36.60
2018-07-22T09:14:30.010Z,36.40
2018-07-22T09:16:59.568Z,36.70
2018-07-22T09:19:28.905Z,37.40
2018-07-22T09:21:58.267Z,38.10
2018-07-22T09:24:27.791Z,37.40
2018-07-22T09:26:57.174Z,36.80
2018-07-22T09:29:26.486Z,37.10
2018-07-22T09:31:55.747Z,37.30
2018-07-22T09:34:25.215Z,36.80
2018-07-22T09:36:54.857Z,36.30
2018-07-22T09:39:24.300Z,36.50
2018-07-22T09:41:53.896Z,37.30
2018-07-22T09:44:23.326Z,36.60
2018-07-22T09:46:52.690Z,36.70
2018-07-22T09:49:22.149Z,37.10
2018-07-22T09:51:51.599Z,37.00
2018-07-22T09:54:21.476Z,36.10
2018-07-22T09:56:50.935Z,36.30
2018-07-22T09:59:20.553Z,36.40
2018-07-22T10:01:50.135Z,36.60
2018-07-22T10:04:19.711Z,37.50
2018-07-22T10:06:52.084Z,38.00
2018-07-22T10:09:22.297Z,37.90
2018-07-22T10:11:52.944Z,38.00
2018-07-22T10:14:23.463Z,37.30
2018-07-22T10:16:52.860Z,37.20
2018-07-22T10:19:22.347Z,36.70
2018-07-22T10:21:51.766Z,36.80
2018-07-22T10:24:21.194Z,37.10
2018-07-22T10:26:50.732Z,37.30
2018-07-22T10:29:20.220Z,37.00
2018-07-22T10:31:52.824Z,36.90
2018-07-22T10:34:22.535Z,36.70
2018-07-22T10:36:52.041Z,36.30
2018-07-22T10:39:21.378Z,36.30
2018-07-22T10:41:50.745Z,36.40
2018-07-22T10:46:49.346Z,37.10
2018-07-22T10:49:18.905Z,37.10
2018-07-22T10:51:48.324Z,37.00
2018-07-22T10:54:17.678Z,36.80
2018-07-22T10:56:47.083Z,36.10
2018-07-22T10:59:16.520Z,35.70
2018-07-22T11:01:45.848Z,36.10
2018-07-22T11:04:15.184Z,36.20
2018-07-22T11:06:44.627Z,36.40
2018-07-22T11:09:14.089Z,35.20
2018-07-22T11:11:43.577Z,35.00
2018-07-22T11:14:13.087Z,35.10
2018-07-22T11:19:11.414Z,33.90
2018-07-22T11:21:40.891Z,33.60
2018-07-22T11:24:10.246Z,33.90
2018-07-22T11:26:39.649Z,34.30
2018-07-22T11:29:09.065Z,34.50
2018-07-22T11:31:38.403Z,34.90
2018-07-22T11:34:07.846Z,34.90
2018-07-22T11:36:37.367Z,34.70
2018-07-22T11:39:09.566Z,34.80
2018-07-22T11:41:39.827Z,34.50
2018-07-22T11:44:10.071Z,34.30
2018-07-22T11:46:40.082Z,34.00
2018-07-22T11:49:09.551Z,34.20
2018-07-22T11:51:39.323Z,34.00
2018-07-22T11:54:08.795Z,33.50
2018-07-22T11:56:38.119Z,33.70
2018-07-22T11:59:07.620Z,33.60
2018-07-22T12:01:37.127Z,33.00
2018-07-22T12:04:06.947Z,32.90
2018-07-22T12:06:36.360Z,33.10
2018-07-22T12:09:08.901Z,32.80
2018-07-22T12:11:38.377Z,32.90
2018-07-22T12:14:07.792Z,33.10
2018-07-22T12:16:37.110Z,33.20
2018-07-22T12:19:06.743Z,33.30
2018-07-22T12:21:36.184Z,33.50
2018-07-22T12:24:05.638Z,33.10
2018-07-22T12:29:03.979Z,31.80
2018-07-22T12:31:33.433Z,31.70
2018-07-22T12:34:03.110Z,31.40
2018-07-22T12:36:32.437Z,31.40
2018-07-22T12:39:01.852Z,31.40
2018-07-22T12:41:31.320Z,31.10
2018-07-22T12:44:00.617Z,31.10
2018-07-22T12:46:30.064Z,31.00
2018-07-22T12:48:59.579Z,31.00
2018-07-22T12:51:29.097Z,30.90
2018-07-22T12:53:58.452Z,30.70
2018-07-22T12:58:56.893Z,30.50
2018-07-22T13:01:26.326Z,30.50
2018-07-22T13:03:56.051Z,30.60
2018-07-22T13:06:25.802Z,30.90
2018-07-22T13:08:55.291Z,31.30
2018-07-22T13:11:24.630Z,31.70
2018-07-22T13:13:53.971Z,31.80
2018-07-22T13:16:23.331Z,32.20
2018-07-22T13:18:52.899Z,32.50
2018-07-22T13:21:22.387Z,32.80
2018-07-22T13:23:51.844Z,32.60
2018-07-22T13:26:21.151Z,32.60
2018-07-22T13:28:50.596Z,32.60
2018-07-22T13:31:20.560Z,32.80
2018-07-22T13:33:59.220Z,32.20
2018-07-22T13:36:28.988Z,32.20
2018-07-22T13:38:58.510Z,31.70
2018-07-22T13:41:27.967Z,31.90
2018-07-22T13:43:57.319Z,32.10
2018-07-22T13:46:26.782Z,32.20
2018-07-22T13:48:56.157Z,32.10
2018-07-22T13:53:54.474Z,31.90
2018-07-22T13:56:24.023Z,31.90
2018-07-22T13:58:53.538Z,31.80
2018-07-22T14:01:23.079Z,31.60
2018-07-22T14:03:52.409Z,31.30
2018-07-22T14:06:21.884Z,31.40
2018-07-22T14:08:51.261Z,31.50
2018-07-22T14:11:20.893Z,31.70
2018-07-22T14:13:50.198Z,31.60
2018-07-22T14:16:19.519Z,31.40
2018-07-22T14:18:48.882Z,31.40
2018-07-22T14:21:18.465Z,31.10
2018-07-22T14:23:47.780Z,31.00
2018-07-22T14:26:17.245Z,31.00
2018-07-22T14:28:46.459Z,30.70
2018-07-22T14:31:15.789Z,30.70
2018-07-22T14:33:45.321Z,30.70
2018-07-22T14:36:14.730Z,30.70
2018-07-22T14:38:44.449Z,31.10
2018-07-22T14:41:14.130Z,31.10
2018-07-22T14:43:43.573Z,31.30
2018-07-22T14:46:13.039Z,31.60
2018-07-22T14:48:42.765Z,32.00
2018-07-22T14:51:12.451Z,31.90
2018-07-22T14:53:42.914Z,31.80
2018-07-22T14:56:12.463Z,31.30
2018-07-22T14:58:43.245Z,31.10
2018-07-22T15:01:13.400Z,31.00
2018-07-22T15:03:44.861Z,30.90
2018-07-22T15:06:14.874Z,30.70
2018-07-22T15:08:44.402Z,30.50
2018-07-22T15:11:13.975Z,30.20
2018-07-22T15:13:43.502Z,29.90
2018-07-22T15:16:12.859Z,29.70
2018-07-22T15:18:42.484Z,29.40
2018-07-22T15:21:12.112Z,29.20
2018-07-22T15:23:41.599Z,29.00
2018-07-22T15:26:11.112Z,28.60
2018-07-22T15:28:40.787Z,28.30
2018-07-22T15:31:12.286Z,27.90
2018-07-22T15:33:41.591Z,27.70
2018-07-22T15:36:11.023Z,27.50
2018-07-22T15:38:40.577Z,27.40
2018-07-22T15:41:09.961Z,27.30
2018-07-22T15:43:39.790Z,27.20
2018-07-22T15:46:09.097Z,27.20
2018-07-22T15:48:38.921Z,27.30
2018-07-22T15:51:08.486Z,27.40
2018-07-22T15:53:38.034Z,27.60
2018-07-22T15:56:07.662Z,27.70
2018-07-22T16:01:07.097Z,28.10
2018-07-22T16:03:36.710Z,28.30
2018-07-22T16:06:06.345Z,28.50
2018-07-22T16:08:35.775Z,28.50
2018-07-22T16:11:05.276Z,28.40
2018-07-22T16:13:34.881Z,28.30
2018-07-22T16:16:04.483Z,28.20
2018-07-22T16:18:34.955Z,28.30
2018-07-22T16:21:04.612Z,28.30
2018-07-22T16:23:34.077Z,28.30
2018-07-22T16:26:03.610Z,28.30
2018-07-22T16:28:33.141Z,28.20
2018-07-22T16:31:02.719Z,28.20
2018-07-22T16:33:32.323Z,28.10
2018-07-22T16:36:01.875Z,28.00
2018-07-22T16:38:31.602Z,27.90
2018-07-22T16:41:01.463Z,27.90
2018-07-22T16:43:31.184Z,27.90
2018-07-22T16:46:00.735Z,27.90
2018-07-22T16:48:30.478Z,27.80
2018-07-22T16:51:00.012Z,27.70
2018-07-22T16:53:29.736Z,27.70
2018-07-22T16:55:59.219Z,27.60
2018-07-22T16:58:29.451Z,27.60
2018-07-22T17:00:58.884Z,27.60
2018-07-22T17:03:28.559Z,27.60
2018-07-22T17:05:58.040Z,27.50
2018-07-22T17:08:27.553Z,27.40
2018-07-22T17:10:56.895Z,27.30
2018-07-22T17:13:26.990Z,27.20
2018-07-22T17:15:56.494Z,27.10
2018-07-22T17:20:54.801Z,27.20
2018-07-22T17:25:53.311Z,27.30
2018-07-22T17:28:22.637Z,27.30
2018-07-22T17:30:52.083Z,27.30
2018-07-22T17:33:21.476Z,27.30
2018-07-22T17:35:50.839Z,27.30
2018-07-22T17:38:20.910Z,27.30
2018-07-22T17:40:50.574Z,27.30
2018-07-22T17:43:20.106Z,27.30
2018-07-22T17:45:50.900Z,27.40
2018-07-22T17:48:20.720Z,27.40
2018-07-22T17:50:50.712Z,27.40
2018-07-22T17:53:20.299Z,27.20
2018-07-22T17:55:49.987Z,27.20
2018-07-22T17:58:19.499Z,27.10
2018-07-22T18:00:49.115Z,27.10
2018-07-22T18:05:50.652Z,26.80
2018-07-22T18:08:20.713Z,26.60
2018-07-22T18:10:51.093Z,26.50
2018-07-22T18:13:20.703Z,26.40
2018-07-22T18:15:50.188Z,26.30
2018-07-22T18:18:19.668Z,26.20
2018-07-22T18:23:19.481Z,26.00
2018-07-22T18:25:49.193Z,25.80
2018-07-22T18:30:47.557Z,25.60
2018-07-22T18:33:17.084Z,25.60
2018-07-22T18:35:47.328Z,25.50
2018-07-22T18:38:16.953Z,25.50
2018-07-22T18:40:46.638Z,25.50
2018-07-22T18:43:16.074Z,25.40
2018-07-22T18:45:45.660Z,25.30
2018-07-22T18:48:15.581Z,25.20
2018-07-22T18:50:44.972Z,25.20
2018-07-22T18:53:14.667Z,25.10
2018-07-22T18:55:44.408Z,24.90
2018-07-22T18:58:14.046Z,24.90
2018-07-22T19:00:45.225Z,24.90
2018-07-22T19:03:15.172Z,24.80
2018-07-22T19:05:45.013Z,24.80
2018-07-22T19:08:14.628Z,24.70
2018-07-22T19:10:44.350Z,24.60
2018-07-22T19:13:14.033Z,24.50
2018-07-22T19:15:43.990Z,24.30
2018-07-22T19:18:13.670Z,24.20
2018-07-22T19:20:43.318Z,24.10
2018-07-22T19:23:13.183Z,24.00
2018-07-22T19:25:42.815Z,23.90
2018-07-22T19:28:12.597Z,23.90
2018-07-22T19:40:27.348Z,23.80
2018-07-22T19:42:57.448Z,23.30
2018-07-22T19:45:27.120Z,23.20
2018-07-22T19:47:57.060Z,23.10
2018-07-22T19:50:26.708Z,23.10
2018-07-22T19:52:56.509Z,23.10
2018-07-22T19:55:26.153Z,23.10
2018-07-22T19:57:55.726Z,23.10
2018-07-22T20:00:25.359Z,23.10
2018-07-22T20:02:55.018Z,23.20
2018-07-22T20:05:24.878Z,23.20
2018-07-22T20:07:54.512Z,23.30
2018-07-22T20:10:24.309Z,23.20
2018-07-22T20:12:54.494Z,23.20
2018-07-22T20:15:24.591Z,23.20
2018-07-22T20:17:54.149Z,23.20
2018-07-22T20:20:23.890Z,23.20
2018-07-22T20:22:53.593Z,23.20
2018-07-22T20:25:23.229Z,23.10
2018-07-22T20:27:52.789Z,23.10
2018-07-22T20:30:22.856Z,23.00
2018-07-22T20:32:53.085Z,23.00
2018-07-22T20:35:22.774Z,22.90
2018-07-22T20:37:52.537Z,22.70
2018-07-22T20:40:25.582Z,22.60
2018-07-22T20:42:58.735Z,22.50
2018-07-22T20:45:28.275Z,22.40
2018-07-22T20:47:57.893Z,22.40
2018-07-22T20:50:27.338Z,22.40
2018-07-22T20:52:56.955Z,22.40
2018-07-22T20:55:26.396Z,22.40
2018-07-22T20:57:55.951Z,22.40
2018-07-22T21:00:25.476Z,22.40
2018-07-22T21:02:54.902Z,22.40
2018-07-22T21:05:24.259Z,22.40
2018-07-22T21:07:53.746Z,22.40
2018-07-22T21:10:23.129Z,22.30
2018-07-22T21:13:03.611Z,22.30
2018-07-22T21:15:33.031Z,22.20
2018-07-22T21:18:02.515Z,22.10
2018-07-22T21:20:31.950Z,22.10
2018-07-22T21:23:01.740Z,22.10
2018-07-22T21:25:31.090Z,22.10
2018-07-22T21:28:00.699Z,22.10
2018-07-22T21:30:30.214Z,22.10
2018-07-22T21:32:59.625Z,22.20
2018-07-22T21:35:29.069Z,22.20
2018-07-22T21:37:58.895Z,22.20
2018-07-22T21:40:28.417Z,22.30
2018-07-22T21:42:57.871Z,22.30
2018-07-22T21:45:27.330Z,22.30
2018-07-22T21:47:56.647Z,22.40
2018-07-22T21:50:26.045Z,22.40
2018-07-22T21:52:55.456Z,22.40
2018-07-22T21:55:25.036Z,22.40
2018-07-22T21:57:54.604Z,22.40
2018-07-22T22:00:31.455Z,22.40
2018-07-22T22:03:02.616Z,22.40
2018-07-22T22:05:32.101Z,22.40
2018-07-22T22:08:01.513Z,22.40
2018-07-22T22:10:31.042Z,22.40
2018-07-22T22:13:00.410Z,22.30
2018-07-22T22:15:31.136Z,22.20
2018-07-22T22:18:02.359Z,22.10
2018-07-22T22:20:32.295Z,22.00
2018-07-22T22:23:01.835Z,21.90
2018-07-22T22:25:31.216Z,21.80
2018-07-22T22:28:00.694Z,21.70
2018-07-22T22:30:30.271Z,21.70
2018-07-22T22:32:59.680Z,21.60
2018-07-22T22:35:29.254Z,21.50
2018-07-22T22:37:59.020Z,21.30
2018-07-22T22:40:28.534Z,21.60
2018-07-22T22:42:57.869Z,21.20
2018-07-22T22:45:27.268Z,21.10
2018-07-22T22:47:57.116Z,21.00
2018-07-22T22:50:26.508Z,20.90
2018-07-22T22:52:55.971Z,20.90
2018-07-22T22:55:25.543Z,20.90
2018-07-22T22:58:06.497Z,20.80
2018-07-22T23:00:36.412Z,20.70
2018-07-22T23:03:06.279Z,20.60
2018-07-22T23:05:35.920Z,20.60
2018-07-22T23:08:05.731Z,20.50
2018-07-22T23:10:35.171Z,20.50
2018-07-22T23:13:04.616Z,20.50
2018-07-22T23:15:34.032Z,20.40
2018-07-22T23:18:03.526Z,20.40
2018-07-22T23:20:33.142Z,20.30
2018-07-22T23:23:02.786Z,20.30
2018-07-22T23:25:32.297Z,20.30
2018-07-22T23:28:01.707Z,20.30
2018-07-22T23:30:31.147Z,20.20
2018-07-22T23:33:00.616Z,20.10
2018-07-22T23:35:29.954Z,20.10
2018-07-22T23:37:59.464Z,20.00
2018-07-22T23:40:28.980Z,19.90
2018-07-22T23:42:58.356Z,19.90
2018-07-22T23:45:27.691Z,19.90
2018-07-22T23:47:57.322Z,19.80
2018-07-22T23:50:27.017Z,19.80
2018-07-22T23:52:56.511Z,19.70
2018-07-22T23:55:25.949Z,19.60
2018-07-22T23:57:55.287Z,19.60
